Time;durP1;ratioP1;P1;durP2;ratioP2;P2;SDS_P1;SDS_P2;PMS_P1;PMS_P2;Temp;Humidity;BMP_temperature;BMP_pressure;BME280_temperature;BME280_humidity;BME280_pressure;Samples;Min_cycle;Max_cycle;Signal;HPM_P1;HPM_P2
2023/06/19 00:01:54;;;;;;;5.85;4.30;;;;;;;;;;5054994;28;20025;-63
2023/06/19 00:04:20;;;;;;;6.13;4.30;;;;;;;;;;5055120;28;20033;-59
2023/06/19 00:06:45;;;;;;;5.63;3.83;;;;;;;;;;5055139;28;20497;-62
2023/06/19 00:09:11;;;;;;;6.15;4.00;;;;;;;;;;5055065;28;20082;-64
2023/06/19 00:11:37;;;;;;;5.20;4.15;;;;;;;;;;5054936;28;20024;-63
2023/06/19 00:14:02;;;;;;;4.38;3.72;;;;;;;;;;5055125;28;20083;-64
2023/06/19 00:16:28;;;;;;;4.63;3.72;;;;;;;;;;5054783;28;20103;-62
2023/06/19 00:18:55;;;;;;;8.57;4.00;;;;;;;;;;5054838;28;20028;-61
2023/06/19 00:21:25;;;;;;;5.63;4.13;;;;;;;;;;5055001;28;20036;-63
2023/06/19 00:23:52;;;;;;;6.03;3.90;;;;;;;;;;5054769;28;20079;-63
2023/06/19 00:26:22;;;;;;;4.72;3.90;;;;;;;;;;5054943;28;20060;-64
2023/06/19 00:28:48;;;;;;;;;;;;;;;;;;5055344;28;20025;-59
2023/06/19 00:31:14;;;;;;;6.95;3.90;;;;;;;;;;5054708;28;19992;-59
2023/06/19 00:33:40;;;;;;;5.80;3.90;;;;;;;;;;5054849;28;20385;-61
2023/06/19 00:36:10;;;;;;;6.30;4.38;;;;;;;;;;5054715;28;20033;-63
2023/06/19 00:38:36;;;;;;;8.43;3.90;;;;;;;;;;5054504;28;20032;-63
2023/06/19 00:41:03;;;;;;;7.80;4.00;;;;;;;;;;5054348;28;20045;-65
2023/06/19 00:43:28;;;;;;;6.75;4.05;;;;;;;;;;5054353;28;20039;-64
2023/06/19 00:45:56;;;;;;;5.03;4.15;;;;;;;;;;5053025;28;20377;-59
2023/06/19 00:48:22;;;;;;;6.40;3.70;;;;;;;;;;5054590;28;20339;-64
2023/06/19 00:50:49;;;;;;;5.13;4.15;;;;;;;;;;5054232;28;20021;-64
2023/06/19 00:53:15;;;;;;;4.85;4.13;;;;;;;;;;5054401;28;20031;-64
2023/06/19 00:55:43;;;;;;;6.72;4.13;;;;;;;;;;5054073;28;20017;-62
2023/06/19 00:58:09;;;;;;;5.47;3.88;;;;;;;;;;5054346;28;20443;-60
2023/06/19 01:00:34;;;;;;;4.03;3.63;;;;;;;;;;5054017;28;20021;-61
2023/06/19 01:03:00;;;;;;;4.40;4.00;;;;;;;;;;5054357;28;20381;-59
2023/06/19 01:05:25;;;;;;;4.57;3.85;;;;;;;;;;5053890;28;20392;-58
2023/06/19 01:08:12;;;;;;;6.68;4.20;;;;;;;;;;5054168;28;20033;-62
2023/06/19 01:10:43;;;;;;;5.78;4.40;;;;;;;;;;5053413;28;20462;-63
2023/06/19 01:13:33;;;;;;;4.53;3.75;;;;;;;;;;5054149;28;20036;-60
2023/06/19 01:15:59;;;;;;;4.88;4.00;;;;;;;;;;5053693;28;20040;-62
2023/06/19 01:18:26;;;;;;;5.18;4.03;;;;;;;;;;5053724;28;20036;-64
2023/06/19 01:20:52;;;;;;;4.85;3.90;;;;;;;;;;5053645;28;20021;-62
2023/06/19 01:23:18;;;;;;;4.78;4.00;;;;;;;;;;5053627;28;20040;-64
2023/06/19 01:25:43;;;;;;;8.02;4.10;;;;;;;;;;5053863;28;20461;-64
2023/06/19 01:28:11;;;;;;;4.63;4.00;;;;;;;;;;5052216;28;20031;-60
2023/06/19 01:30:40;;;;;;;6.72;3.90;;;;;;;;;;5053454;28;20025;-61
2023/06/19 01:33:42;;;;;;;7.68;4.63;;;;;;;;;;5053338;28;20045;-64
2023/06/19 01:36:09;;;;;;;4.38;3.60;;;;;;;;;;5031068;28;20033;-63
2023/06/19 01:38:36;;;;;;;5.28;4.10;;;;;;;;;;5048814;28;20552;-61
2023/06/19 01:41:03;;;;;;;5.18;4.10;;;;;;;;;;5053341;28;20021;-64
2023/06/19 01:43:31;;;;;;;6.85;3.70;;;;;;;;;;5053209;28;20021;-63
2023/06/19 01:45:58;;;;;;;5.97;4.20;;;;;;;;;;5053231;28;20036;-64
2023/06/19 01:48:24;;;;;;;4.97;3.85;;;;;;;;;;5053134;28;20021;-64
2023/06/19 01:50:50;;;;;;;6.07;4.00;;;;;;;;;;5053408;28;20427;-61
2023/06/19 01:53:16;;;;;;;6.38;4.25;;;;;;;;;;5052934;28;20029;-63
2023/06/19 01:55:42;;;;;;;4.10;3.70;;;;;;;;;;5053309;28;20044;-64
2023/06/19 01:58:08;;;;;;;5.35;3.70;;;;;;;;;;5052843;28;20049;-63
2023/06/19 02:00:37;;;;;;;5.13;4.22;;;;;;;;;;5053215;28;20025;-59
2023/06/19 02:03:03;;;;;;;6.80;4.03;;;;;;;;;;5052836;28;20039;-63
2023/06/19 02:05:34;;;;;;;4.60;4.10;;;;;;;;;;5053110;28;20029;-59
2023/06/19 02:07:59;;;;;;;5.53;4.45;;;;;;;;;;5051620;28;20052;-58
2023/06/19 02:10:25;;;;;;;5.53;4.20;;;;;;;;;;5052785;28;20059;-63
2023/06/19 02:12:50;;;;;;;6.72;3.97;;;;;;;;;;5052689;28;20354;-63
2023/06/19 02:15:16;;;;;;;5.10;4.20;;;;;;;;;;5052651;28;20040;-63
2023/06/19 02:17:42;;;;;;;5.45;3.97;;;;;;;;;;5052605;28;20029;-62
2023/06/19 02:20:11;;;;;;;7.50;4.03;;;;;;;;;;5052898;28;20450;-63
2023/06/19 02:22:38;;;;;;;5.18;4.07;;;;;;;;;;5050448;28;20104;-63
2023/06/19 02:25:05;;;;;;;5.40;3.90;;;;;;;;;;5052880;28;20029;-64
2023/06/19 02:27:30;;;;;;;5.88;4.07;;;;;;;;;;5052720;28;20346;-63
2023/06/19 02:29:56;;;;;;;5.22;3.97;;;;;;;;;;5052412;28;20079;-63
2023/06/19 02:32:21;;;;;;;5.20;3.90;;;;;;;;;;5052213;28;20041;-63
2023/06/19 02:34:47;;;;;;;4.60;4.18;;;;;;;;;;5052350;28;20060;-62
2023/06/19 02:37:13;;;;;;;7.63;4.00;;;;;;;;;;5052279;28;20020;-59
2023/06/19 02:39:38;;;;;;;4.75;4.07;;;;;;;;;;5052324;28;20051;-58
2023/06/19 02:42:04;;;;;;;5.30;3.75;;;;;;;;;;5052262;28;20035;-60
2023/06/19 02:44:30;;;;;;;4.47;3.88;;;;;;;;;;5052533;28;20064;-58
2023/06/19 02:46:55;;;;;;;4.32;3.72;;;;;;;;;;5052223;28;20080;-63
2023/06/19 02:49:21;;;;;;;5.63;3.83;;;;;;;;;;5052221;28;20066;-63
2023/06/19 02:51:46;;;;;;;5.68;3.80;;;;;;;;;;5052151;28;20155;-62
2023/06/19 02:54:12;;;;;;;5.57;4.43;;;;;;;;;;5050909;28;20021;-64
2023/06/19 02:56:38;;;;;;;4.60;3.97;;;;;;;;;;5052350;28;20486;-63
2023/06/19 02:59:04;;;;;;;4.55;4.00;;;;;;;;;;5052242;28;20504;-64
2023/06/19 03:01:30;;;;;;;5.13;4.43;;;;;;;;;;5052076;28;20025;-60
2023/06/19 03:03:55;;;;;;;4.47;3.97;;;;;;;;;;5052125;28;20021;-59
2023/06/19 03:06:21;;;;;;;6.65;4.18;;;;;;;;;;5052006;28;20049;-64
2023/06/19 03:08:47;;;;;;;5.53;4.05;;;;;;;;;;5052043;28;20096;-64
2023/06/19 03:11:13;;;;;;;5.25;3.75;;;;;;;;;;5052278;28;20033;-61
2023/06/19 03:13:50;;;;;;;7.25;4.60;;;;;;;;;;5051880;28;20552;-62
2023/06/19 03:16:15;;;;;;;5.05;3.92;;;;;;;;;;5051993;28;20025;-62
2023/06/19 03:18:44;;;;;;;4.30;3.78;;;;;;;;;;5052220;28;20036;-64
2023/06/19 03:21:10;;;;;;;6.25;4.20;;;;;;;;;;5052167;28;20044;-60
2023/06/19 03:23:36;;;;;;;6.35;4.10;;;;;;;;;;5051921;28;20040;-62
2023/06/19 03:26:01;;;;;;;5.43;4.38;;;;;;;;;;5051883;28;20108;-62
2023/06/19 03:28:27;;;;;;;4.45;3.90;;;;;;;;;;5051859;28;20059;-60
2023/06/19 03:30:54;;;;;;;6.03;4.20;;;;;;;;;;5051764;28;20029;-60
2023/06/19 03:33:19;;;;;;;4.88;3.97;;;;;;;;;;5052984;28;20045;-61
2023/06/19 03:35:45;;;;;;;6.65;4.30;;;;;;;;;;5055536;28;20033;-60
2023/06/19 03:38:10;;;;;;;4.45;4.05;;;;;;;;;;5056222;28;20081;-64
2023/06/19 03:40:36;;;;;;;6.07;4.07;;;;;;;;;;5055786;28;20646;-62
2023/06/19 03:43:02;;;;;;;5.18;4.15;;;;;;;;;;5055519;28;20104;-59
2023/06/19 03:45:27;;;;;;;5.03;3.90;;;;;;;;;;5055370;28;20028;-62
2023/06/19 03:47:53;;;;;;;4.40;3.90;;;;;;;;;;5055433;28;20103;-61
2023/06/19 03:50:19;;;;;;;5.72;4.47;;;;;;;;;;5055374;28;20045;-61
2023/06/19 03:52:45;;;;;;;5.18;4.20;;;;;;;;;;5055655;28;20534;-65
2023/06/19 03:55:10;;;;;;;6.40;4.25;;;;;;;;;;5055188;28;20082;-61
2023/06/19 03:57:36;;;;;;;6.68;3.90;;;;;;;;;;5055474;28;20021;-61
2023/06/19 04:00:04;;;;;;;4.38;3.90;;;;;;;;;;5055191;28;20017;-62
2023/06/19 04:02:30;;;;;;;4.25;3.83;;;;;;;;;;5055102;28;20064;-61
2023/06/19 04:04:55;;;;;;;5.95;4.35;;;;;;;;;;5055105;28;20086;-60
2023/06/19 04:07:21;;;;;;;4.55;3.92;;;;;;;;;;5055053;28;20032;-61
2023/06/19 04:09:47;;;;;;;5.10;4.38;;;;;;;;;;5054948;28;20025;-61
2023/06/19 04:12:12;;;;;;;5.80;4.15;;;;;;;;;;5053691;28;20044;-61
2023/06/19 04:14:38;;;;;;;5.28;4.00;;;;;;;;;;5054772;28;20039;-63
2023/06/19 04:17:04;;;;;;;4.85;4.10;;;;;;;;;;5053599;28;20053;-62
2023/06/19 04:19:29;;;;;;;5.13;4.13;;;;;;;;;;5054831;28;20021;-60
2023/06/19 04:21:55;;;;;;;6.22;4.05;;;;;;;;;;5054702;28;20029;-61
2023/06/19 04:24:20;;;;;;;6.90;4.32;;;;;;;;;;5054726;28;20044;-60
2023/06/19 04:26:46;;;;;;;6.50;4.32;;;;;;;;;;5054618;28;20066;-62
2023/06/19 04:29:16;;;;;;;6.72;4.32;;;;;;;;;;5054618;28;20059;-60
2023/06/19 04:31:46;;;;;;;6.30;4.45;;;;;;;;;;5054412;28;20049;-62
2023/06/19 04:34:21;;;;;;;5.88;3.90;;;;;;;;;;5054680;28;20502;-60
2023/06/19 04:36:49;;;;;;;6.50;4.40;;;;;;;;;;5054498;28;20113;-60
2023/06/19 04:39:15;;;;;;;4.40;4.00;;;;;;;;;;5054420;28;20024;-60
2023/06/19 04:41:44;;;;;;;4.55;4.15;;;;;;;;;;5054637;28;20025;-59
2023/06/19 04:44:11;;;;;;;5.88;4.20;;;;;;;;;;5053947;28;20070;-59
2023/06/19 04:46:37;;;;;;;6.43;4.43;;;;;;;;;;5053848;28;20466;-62
2023/06/19 04:49:03;;;;;;;4.78;4.00;;;;;;;;;;5054300;28;20596;-62
2023/06/19 04:51:32;;;;;;;4.75;4.13;;;;;;;;;;5054126;28;20017;-64
2023/06/19 04:54:00;;;;;;;6.20;4.47;;;;;;;;;;5054079;28;20021;-62
2023/06/19 04:56:26;;;;;;;5.68;4.43;;;;;;;;;;5054070;28;20529;-65
2023/06/19 04:58:54;;;;;;;5.15;4.38;;;;;;;;;;5054005;28;20113;-64
2023/06/19 05:01:25;;;;;;;4.40;3.85;;;;;;;;;;5053908;28;20035;-65
2023/06/19 05:03:51;;;;;;;6.07;4.38;;;;;;;;;;5053011;28;20029;-64
2023/06/19 05:06:17;;;;;;;6.95;4.38;;;;;;;;;;5053919;28;20025;-64
2023/06/19 05:08:42;;;;;;;7.50;4.13;;;;;;;;;;5053899;28;20032;-64
2023/06/19 05:11:08;;;;;;;5.90;4.22;;;;;;;;;;5053671;28;20397;-62
2023/06/19 05:13:33;;;;;;;4.70;4.20;;;;;;;;;;5052399;28;20108;-61
2023/06/19 05:15:59;;;;;;;7.35;3.88;;;;;;;;;;5053650;28;20048;-61
2023/06/19 05:18:24;;;;;;;6.18;4.28;;;;;;;;;;5052426;28;20025;-61
2023/06/19 05:20:50;;;;;;;4.20;3.80;;;;;;;;;;5053792;28;20033;-60
2023/06/19 05:23:15;;;;;;;6.03;4.00;;;;;;;;;;5053607;28;20365;-62
2023/06/19 05:25:42;;;;;;;4.45;3.88;;;;;;;;;;5053777;28;20392;-64
2023/06/19 05:28:08;;;;;;;5.30;4.20;;;;;;;;;;5053517;28;20025;-65
2023/06/19 05:30:34;;;;;;;5.15;4.38;;;;;;;;;;5053783;28;20135;-64
2023/06/19 05:33:00;;;;;;;6.15;4.07;;;;;;;;;;5053346;28;20091;-61
2023/06/19 05:35:26;;;;;;;5.75;4.10;;;;;;;;;;5053350;28;20028;-61
2023/06/19 05:37:52;;;;;;;5.10;3.85;;;;;;;;;;5053360;28;20033;-61
2023/06/19 05:40:17;;;;;;;5.13;4.07;;;;;;;;;;5053634;28;20108;-62
2023/06/19 05:42:43;;;;;;;5.15;3.83;;;;;;;;;;5053386;28;20469;-60
2023/06/19 05:45:09;;;;;;;5.07;3.80;;;;;;;;;;5053247;28;20048;-61
2023/06/19 05:47:35;;;;;;;5.38;3.97;;;;;;;;;;5053490;28;20079;-64
2023/06/19 05:50:00;;;;;;;7.55;4.20;;;;;;;;;;5053137;28;20021;-62
2023/06/19 05:52:26;;;;;;;6.15;4.05;;;;;;;;;;5053164;28;20025;-61
2023/06/19 05:54:53;;;;;;;6.65;4.30;;;;;;;;;;5053026;28;20033;-61
2023/06/19 05:57:20;;;;;;;6.95;4.25;;;;;;;;;;5050831;28;20028;-61
2023/06/19 05:59:50;;;;;;;5.63;4.10;;;;;;;;;;5045658;28;20527;-61
2023/06/19 06:02:18;;;;;;;7.95;4.22;;;;;;;;;;5047564;28;20036;-66
2023/06/19 06:04:43;;;;;;;4.78;3.92;;;;;;;;;;5049088;28;20040;-65
2023/06/19 06:07:09;;;;;;;4.43;3.85;;;;;;;;;;5053124;28;20029;-60
2023/06/19 06:09:35;;;;;;;4.25;3.80;;;;;;;;;;5052758;28;20523;-60
2023/06/19 06:12:01;;;;;;;4.78;4.22;;;;;;;;;;5052747;28;20052;-61
2023/06/19 06:14:26;;;;;;;4.85;3.85;;;;;;;;;;5052579;28;20033;-61
2023/06/19 06:16:52;;;;;;;5.22;3.75;;;;;;;;;;5052988;28;20024;-64
2023/06/19 06:19:21;;;;;;;5.80;4.00;;;;;;;;;;5051363;28;20056;-62
2023/06/19 06:21:46;;;;;;;4.85;3.72;;;;;;;;;;5052586;28;20025;-61
2023/06/19 06:24:12;;;;;;;5.68;3.95;;;;;;;;;;5052465;28;20495;-60
2023/06/19 06:26:37;;;;;;;4.90;4.03;;;;;;;;;;5052288;28;20401;-65
2023/06/19 06:29:03;;;;;;;6.05;4.20;;;;;;;;;;5052407;28;20025;-61
2023/06/19 06:31:29;;;;;;;4.43;3.70;;;;;;;;;;5050929;28;20071;-63
2023/06/19 06:33:54;;;;;;;5.60;4.15;;;;;;;;;;5052550;28;20111;-64
2023/06/19 06:36:21;;;;;;;5.25;4.07;;;;;;;;;;5052571;28;20102;-61
2023/06/19 06:38:46;;;;;;;4.53;4.10;;;;;;;;;;5052338;28;20024;-65
2023/06/19 06:41:12;;;;;;;4.88;4.10;;;;;;;;;;5052375;28;20028;-60
2023/06/19 06:43:40;;;;;;;4.30;3.90;;;;;;;;;;5052259;28;20036;-62
2023/06/19 06:46:05;;;;;;;7.20;4.10;;;;;;;;;;5050926;28;20496;-61
2023/06/19 06:48:31;;;;;;;5.38;4.20;;;;;;;;;;5052243;28;20025;-61
2023/06/19 06:51:01;;;;;;;4.60;3.78;;;;;;;;;;5050980;28;20428;-61
2023/06/19 06:53:32;;;;;;;4.68;3.97;;;;;;;;;;5050815;28;20469;-60
2023/06/19 06:55:59;;;;;;;4.57;3.92;;;;;;;;;;5052467;28;20393;-64
2023/06/19 06:58:24;;;;;;;6.53;4.10;;;;;;;;;;5052321;28;20166;-60
2023/06/19 07:00:50;;;;;;;5.18;3.92;;;;;;;;;;5052162;28;20516;-60
2023/06/19 07:03:17;;;;;;;4.85;3.72;;;;;;;;;;5052115;28;20465;-65
2023/06/19 07:05:43;;;;;;;4.53;4.13;;;;;;;;;;5052218;28;20040;-67
2023/06/19 07:08:12;;;;;;;5.20;3.97;;;;;;;;;;5050532;28;20029;-62
2023/06/19 07:10:37;;;;;;;4.45;3.88;;;;;;;;;;5048985;28;20175;-68
2023/06/19 07:13:03;;;;;;;7.20;4.20;;;;;;;;;;5052378;28;20516;-61
2023/06/19 07:15:29;;;;;;;4.50;3.90;;;;;;;;;;5052004;28;20366;-63
2023/06/19 07:17:55;;;;;;;4.82;3.88;;;;;;;;;;5052389;28;20104;-60
2023/06/19 07:20:21;;;;;;;4.82;3.83;;;;;;;;;;5052054;28;20017;-60
2023/06/19 07:22:47;;;;;;;4.93;3.88;;;;;;;;;;5053496;28;20025;-62
2023/06/19 07:25:13;;;;;;;4.90;3.67;;;;;;;;;;5053543;28;20357;-61
2023/06/19 07:27:40;;;;;;;4.90;3.80;;;;;;;;;;5051839;28;20079;-60
2023/06/19 07:30:07;;;;;;;5.03;4.05;;;;;;;;;;5056009;28;20115;-60
2023/06/19 07:32:32;;;;;;;6.32;4.35;;;;;;;;;;5047820;28;20064;-62
2023/06/19 07:34:58;;;;;;;5.13;3.80;;;;;;;;;;5034285;28;20046;-67
2023/06/19 07:37:24;;;;;;;4.47;4.07;;;;;;;;;;5032604;28;20084;-61
2023/06/19 07:39:51;;;;;;;4.50;3.97;;;;;;;;;;5050477;28;20656;-64
2023/06/19 07:42:18;;;;;;;6.13;4.20;;;;;;;;;;5048492;28;20064;-63
2023/06/19 07:44:44;;;;;;;5.80;4.10;;;;;;;;;;5052693;28;20049;-65
2023/06/19 07:47:10;;;;;;;4.57;3.78;;;;;;;;;;5053087;28;20017;-65
2023/06/19 07:49:36;;;;;;;5.93;3.90;;;;;;;;;;5049649;28;20063;-67
2023/06/19 07:52:03;;;;;;;6.63;3.70;;;;;;;;;;5048821;28;20468;-64
2023/06/19 07:54:28;;;;;;;4.93;4.10;;;;;;;;;;5040249;28;20079;-65
2023/06/19 07:56:54;;;;;;;4.20;3.58;;;;;;;;;;5033630;28;20396;-62
2023/06/19 07:59:20;;;;;;;4.18;3.78;;;;;;;;;;5033854;28;20478;-65
2023/06/19 08:01:46;;;;;;;6.03;3.88;;;;;;;;;;5052136;28;20029;-60
2023/06/19 08:04:11;;;;;;;8.73;4.20;;;;;;;;;;5049810;28;20469;-66
2023/06/19 08:06:37;;;;;;;8.00;3.60;;;;;;;;;;5050034;28;20041;-61
2023/06/19 08:09:03;;;;;;;4.20;3.72;;;;;;;;;;5051952;28;20032;-61
2023/06/19 08:11:29;;;;;;;8.15;4.13;;;;;;;;;;5052180;28;20039;-62
2023/06/19 08:13:55;;;;;;;5.60;3.92;;;;;;;;;;5052839;28;20029;-65
2023/06/19 08:16:20;;;;;;;6.90;4.15;;;;;;;;;;5052817;28;20078;-65
2023/06/19 08:18:46;;;;;;;5.32;3.58;;;;;;;;;;5051783;28;20078;-65
2023/06/19 08:21:13;;;;;;;6.72;3.90;;;;;;;;;;5052091;28;20521;-65
2023/06/19 08:23:40;;;;;;;4.55;3.67;;;;;;;;;;5053382;28;20456;-61
2023/06/19 08:26:07;;;;;;;4.80;3.70;;;;;;;;;;5053150;28;20100;-65
2023/06/19 08:28:33;;;;;;;4.55;3.72;;;;;;;;;;5053133;28;20382;-63
2023/06/19 08:30:58;;;;;;;4.68;3.95;;;;;;;;;;5054878;28;20059;-64
2023/06/19 08:33:24;;;;;;;4.22;3.80;;;;;;;;;;5054427;28;20481;-66
2023/06/19 08:35:50;;;;;;;5.47;3.90;;;;;;;;;;5041095;28;20552;-65
2023/06/19 08:38:15;;;;;;;5.53;3.97;;;;;;;;;;5034797;28;20371;-62
2023/06/19 08:40:44;;;;;;;5.07;4.20;;;;;;;;;;5034035;28;20111;-61
2023/06/19 08:43:10;;;;;;;6.18;4.25;;;;;;;;;;5033290;28;20083;-63
2023/06/19 08:45:36;;;;;;;4.88;3.60;;;;;;;;;;5032203;28;20036;-62
2023/06/19 08:48:03;;;;;;;7.57;3.58;;;;;;;;;;5033327;28;20030;-61
2023/06/19 08:50:30;;;;;;;7.35;3.70;;;;;;;;;;5032943;28;20029;-62
2023/06/19 08:52:59;;;;;;;6.10;3.97;;;;;;;;;;5033733;28;20053;-61
2023/06/19 08:55:25;;;;;;;4.80;3.67;;;;;;;;;;5033831;28;20026;-62
2023/06/19 08:57:52;;;;;;;4.57;3.67;;;;;;;;;;5034137;28;20036;-66
2023/06/19 09:00:26;;;;;;;4.22;3.83;;;;;;;;;;5033984;28;20646;-61
2023/06/19 09:02:52;;;;;;;4.43;3.92;;;;;;;;;;5032647;28;20366;-63
2023/06/19 09:05:19;;;;;;;5.88;4.07;;;;;;;;;;5034121;28;20068;-62
2023/06/19 09:08:03;;;;;;;4.88;3.85;;;;;;;;;;5034306;28;20117;-65
2023/06/19 09:10:28;;;;;;;4.43;4.03;;;;;;;;;;5033998;28;20055;-62
2023/06/19 09:13:03;;;;;;;4.50;3.78;;;;;;;;;;5033945;28;20029;-62
2023/06/19 09:15:31;;;;;;;6.10;3.70;;;;;;;;;;5032565;28;20044;-66
2023/06/19 09:18:07;;;;;;;4.22;3.67;;;;;;;;;;5033810;28;20021;-63
2023/06/19 09:20:37;;;;;;;5.20;3.70;;;;;;;;;;5033821;28;20017;-61
2023/06/19 09:23:02;;;;;;;5.50;3.90;;;;;;;;;;5033696;28;20064;-63
2023/06/19 09:25:28;;;;;;;4.35;3.30;;;;;;;;;;5033769;28;20267;-67
2023/06/19 09:27:54;;;;;;;5.95;3.80;;;;;;;;;;5033540;28;20036;-64
2023/06/19 09:30:21;;;;;;;5.25;3.83;;;;;;;;;;5033382;28;20028;-65
2023/06/19 09:32:46;;;;;;;6.80;3.90;;;;;;;;;;5033158;28;20038;-66
2023/06/19 09:35:14;;;;;;;4.97;3.60;;;;;;;;;;5033478;28;20105;-63
2023/06/19 09:37:41;;;;;;;5.18;3.75;;;;;;;;;;5033716;28;20383;-64
2023/06/19 09:40:10;;;;;;;4.15;3.35;;;;;;;;;;5033405;28;20377;-61
2023/06/19 09:42:41;;;;;;;4.50;3.90;;;;;;;;;;5033416;28;20029;-61
2023/06/19 09:45:09;;;;;;;4.10;3.50;;;;;;;;;;5033370;28;20027;-62
2023/06/19 09:47:45;;;;;;;4.25;3.85;;;;;;;;;;5033158;28;20026;-65
2023/06/19 09:50:13;;;;;;;6.50;3.80;;;;;;;;;;5033298;28;20018;-63
2023/06/19 09:52:44;;;;;;;5.95;3.80;;;;;;;;;;5033195;28;20032;-64
2023/06/19 09:55:14;;;;;;;5.57;3.53;;;;;;;;;;5065013;28;20485;-67
2023/06/19 09:57:40;;;;;;;;;;;;;;;;;;5032409;28;20362;-62
2023/06/19 10:02:38;;;;;;;4.57;3.78;;;;;;;;;;5033056;28;20134;-65
2023/06/19 10:05:04;;;;;;;3.80;3.42;;;;;;;;;;5031780;28;20450;-65
2023/06/19 10:07:34;;;;;;;4.28;3.53;;;;;;;;;;5033130;28;20025;-61
2023/06/19 10:10:06;;;;;;;4.13;3.45;;;;;;;;;;5032943;28;20072;-61
2023/06/19 10:12:45;;;;;;;3.80;3.50;;;;;;;;;;5032843;28;20017;-63
2023/06/19 10:15:18;;;;;;;;;;;;;;;;;;5033139;28;20036;-66
2023/06/19 10:17:49;;;;;;;3.88;3.55;;;;;;;;;;5032843;28;20348;-64
2023/06/19 10:20:24;;;;;;;4.13;3.50;;;;;;;;;;5032677;28;20481;-65
2023/06/19 10:23:00;;;;;;;3.80;3.38;;;;;;;;;;5032774;28;20030;-61
2023/06/19 10:25:29;;;;;;;5.00;3.83;;;;;;;;;;5032620;28;20377;-64
2023/06/19 10:27:55;;;;;;;6.07;3.42;;;;;;;;;;5064817;28;20064;-63
2023/06/19 10:30:20;;;;;;;4.45;3.63;;;;;;;;;;5032534;28;20446;-67
2023/06/19 10:32:47;;;;;;;3.70;3.28;;;;;;;;;;5032351;28;20061;-63
2023/06/19 10:35:14;;;;;;;3.97;3.60;;;;;;;;;;5032658;28;20036;-64
2023/06/19 10:37:40;;;;;;;5.05;3.72;;;;;;;;;;5032466;28;20029;-62
2023/06/19 10:40:10;;;;;;;4.50;3.60;;;;;;;;;;5032384;28;20079;-64
2023/06/19 10:42:37;;;;;;;4.95;3.20;;;;;;;;;;5031738;28;20025;-62
2023/06/19 10:45:05;;;;;;;3.92;3.53;;;;;;;;;;5032369;28;20022;-63
2023/06/19 10:47:32;;;;;;;3.88;3.40;;;;;;;;;;5032384;28;20062;-64
2023/06/19 10:49:58;;;;;;;4.88;3.65;;;;;;;;;;5032276;28;20465;-63
2023/06/19 10:52:24;;;;;;;6.28;3.58;;;;;;;;;;5031110;28;20032;-66
2023/06/19 10:54:54;;;;;;;3.60;3.30;;;;;;;;;;5032488;28;20021;-61
2023/06/19 10:57:32;;;;;;;4.10;3.60;;;;;;;;;;5032563;28;20057;-62
2023/06/19 10:59:58;;;;;;;4.60;3.40;;;;;;;;;;5032204;28;20033;-62
2023/06/19 11:02:25;;;;;;;5.20;3.80;;;;;;;;;;5032244;28;20373;-63
2023/06/19 11:04:54;;;;;;;3.45;3.15;;;;;;;;;;5032163;28;20094;-65
2023/06/19 11:07:22;;;;;;;;;;;;;;;;;;5032604;28;20029;-66
2023/06/19 11:09:48;;;;;;;4.55;3.75;;;;;;;;;;5032008;28;20357;-65
2023/06/19 11:12:22;;;;;;;4.65;3.70;;;;;;;;;;5032107;28;20034;-63
2023/06/19 11:14:49;;;;;;;4.32;3.58;;;;;;;;;;5031926;28;20032;-66
2023/06/19 11:17:15;;;;;;;4.55;3.70;;;;;;;;;;5032081;28;20496;-64
2023/06/19 11:19:43;;;;;;;4.30;3.38;;;;;;;;;;5030725;28;20029;-63
2023/06/19 11:22:09;;;;;;;4.82;3.90;;;;;;;;;;5032087;28;20393;-66
2023/06/19 11:24:34;;;;;;;4.00;3.50;;;;;;;;;;5031947;28;20033;-62
2023/06/19 11:27:00;;;;;;;4.03;3.45;;;;;;;;;;5031993;28;20079;-62
2023/06/19 11:29:29;;;;;;;4.60;3.70;;;;;;;;;;5031956;28;20103;-63
2023/06/19 11:32:06;;;;;;;4.38;3.40;;;;;;;;;;5031917;28;20049;-63
2023/06/19 11:34:38;;;;;;;3.58;3.28;;;;;;;;;;5031905;28;20036;-64
2023/06/19 11:37:23;;;;;;;3.75;3.20;;;;;;;;;;5031934;28;20104;-63
2023/06/19 11:39:50;;;;;;;3.80;3.25;;;;;;;;;;5031912;28;20034;-63
2023/06/19 11:42:19;;;;;;;4.25;3.60;;;;;;;;;;5031855;28;20021;-63
2023/06/19 11:44:54;;;;;;;4.10;3.50;;;;;;;;;;5031861;28;20430;-63
2023/06/19 11:47:20;;;;;;;4.53;3.35;;;;;;;;;;5031741;28;20267;-64
2023/06/19 11:49:49;;;;;;;4.53;3.50;;;;;;;;;;5031983;28;20521;-63
2023/06/19 11:52:15;;;;;;;3.60;3.30;;;;;;;;;;5032091;28;20374;-63
2023/06/19 11:54:41;;;;;;;4.00;3.50;;;;;;;;;;5033448;28;20034;-62
2023/06/19 11:57:07;;;;;;;4.03;3.15;;;;;;;;;;5035349;28;20483;-63
2023/06/19 11:59:32;;;;;;;4.97;3.40;;;;;;;;;;5035336;28;20017;-64
2023/06/19 12:01:59;;;;;;;3.97;3.47;;;;;;;;;;5035185;28;20060;-65
2023/06/19 12:04:25;;;;;;;4.47;3.15;;;;;;;;;;5035534;28;20420;-64
2023/06/19 12:06:52;;;;;;;3.70;3.20;;;;;;;;;;5035136;28;20025;-64
2023/06/19 12:09:18;;;;;;;4.25;3.25;;;;;;;;;;5035138;28;20485;-66
2023/06/19 12:11:44;;;;;;;6.35;3.65;;;;;;;;;;5035147;28;20040;-63
2023/06/19 12:14:10;;;;;;;3.55;3.25;;;;;;;;;;5034967;28;20022;-64
2023/06/19 12:16:35;;;;;;;4.63;3.70;;;;;;;;;;5067036;28;20038;-64
2023/06/19 12:19:01;;;;;;;8.18;3.28;;;;;;;;;;5035290;28;20478;-66
2023/06/19 12:21:26;;;;;;;3.60;3.30;;;;;;;;;;5034834;28;20540;-65
2023/06/19 12:23:52;;;;;;;3.60;3.20;;;;;;;;;;5034875;28;20026;-63
2023/06/19 12:26:17;;;;;;;5.88;3.42;;;;;;;;;;5034803;28;20053;-65
2023/06/19 12:28:43;;;;;;;4.55;3.40;;;;;;;;;;5034790;28;20029;-64
2023/06/19 12:31:09;;;;;;;4.95;3.38;;;;;;;;;;5034785;28;20035;-66
2023/06/19 12:33:36;;;;;;;3.40;3.10;;;;;;;;;;5035321;28;20108;-62
2023/06/19 12:36:02;;;;;;;3.75;3.03;;;;;;;;;;5034515;28;20041;-63
2023/06/19 12:38:28;;;;;;;3.28;2.97;;;;;;;;;;5034629;28;20100;-65
2023/06/19 12:40:53;;;;;;;3.90;3.50;;;;;;;;;;5034568;28;20416;-63
2023/06/19 12:43:19;;;;;;;4.05;3.42;;;;;;;;;;5034627;28;20040;-63
2023/06/19 12:45:46;;;;;;;4.00;3.40;;;;;;;;;;5034558;28;20037;-63
2023/06/19 12:48:11;;;;;;;3.40;3.10;;;;;;;;;;5034429;28;20017;-63
2023/06/19 12:50:37;;;;;;;3.83;3.25;;;;;;;;;;5066691;28;20025;-65
2023/06/19 12:53:02;;;;;;;3.20;2.90;;;;;;;;;;5034624;28;20109;-62
2023/06/19 12:55:29;;;;;;;4.25;3.58;;;;;;;;;;5034410;28;20029;-66
2023/06/19 12:57:55;;;;;;;5.88;3.30;;;;;;;;;;5034332;28;20028;-62
2023/06/19 13:00:20;;;;;;;3.80;3.40;;;;;;;;;;5034166;28;20025;-66
2023/06/19 13:02:46;;;;;;;3.63;3.33;;;;;;;;;;5033134;28;20029;-65
2023/06/19 13:05:13;;;;;;;3.50;2.83;;;;;;;;;;5033677;28;20017;-62
2023/06/19 13:07:39;;;;;;;3.05;2.85;;;;;;;;;;5033697;28;20036;-63
2023/06/19 13:10:06;;;;;;;4.30;3.10;;;;;;;;;;5033980;28;20025;-63
2023/06/19 13:12:32;;;;;;;3.65;3.17;;;;;;;;;;5033959;28;20029;-64
2023/06/19 13:14:58;;;;;;;3.72;3.30;;;;;;;;;;5034030;28;20120;-62
2023/06/19 13:17:24;;;;;;;3.45;3.15;;;;;;;;;;5034184;28;20518;-66
2023/06/19 13:19:50;;;;;;;3.45;3.15;;;;;;;;;;5033785;28;20091;-65
2023/06/19 13:22:16;;;;;;;3.65;3.28;;;;;;;;;;5033822;28;20022;-64
2023/06/19 13:24:42;;;;;;;3.47;3.15;;;;;;;;;;5033942;28;20029;-63
2023/06/19 13:27:07;;;;;;;3.90;3.28;;;;;;;;;;5033573;28;20038;-62
2023/06/19 13:29:33;;;;;;;3.38;3.00;;;;;;;;;;5033656;28;20021;-63
2023/06/19 13:31:59;;;;;;;3.50;3.20;;;;;;;;;;5033401;28;20128;-66
2023/06/19 13:34:25;;;;;;;3.33;3.00;;;;;;;;;;5033330;28;20137;-62
2023/06/19 13:36:51;;;;;;;3.90;3.20;;;;;;;;;;5033598;28;20513;-63
2023/06/19 13:39:19;;;;;;;4.50;3.20;;;;;;;;;;5033406;28;20053;-63
2023/06/19 13:41:46;;;;;;;3.97;2.80;;;;;;;;;;5033460;28;20025;-63
2023/06/19 13:44:12;;;;;;;4.88;3.40;;;;;;;;;;5033628;28;20035;-62
2023/06/19 13:46:38;;;;;;;4.03;3.20;;;;;;;;;;5033358;28;20017;-65
2023/06/19 13:49:04;;;;;;;5.28;2.88;;;;;;;;;;5033328;28;20041;-63
2023/06/19 13:51:29;;;;;;;3.25;2.95;;;;;;;;;;5033240;28;20374;-62
2023/06/19 13:53:55;;;;;;;3.50;3.17;;;;;;;;;;5032974;28;20075;-62
2023/06/19 13:56:23;;;;;;;3.30;3.00;;;;;;;;;;5031887;28;20026;-65
2023/06/19 13:58:49;;;;;;;3.20;2.80;;;;;;;;;;5033033;28;20048;-63
2023/06/19 14:01:15;;;;;;;3.42;3.13;;;;;;;;;;5033050;28;20025;-64
2023/06/19 14:03:40;;;;;;;4.38;3.33;;;;;;;;;;5032979;28;20029;-62
2023/06/19 14:06:07;;;;;;;3.50;3.20;;;;;;;;;;5032965;28;20096;-63
2023/06/19 14:08:32;;;;;;;4.47;3.55;;;;;;;;;;5032873;28;20029;-62
2023/06/19 14:10:59;;;;;;;4.30;3.38;;;;;;;;;;5032966;28;20083;-66
2023/06/19 14:13:24;;;;;;;3.45;2.90;;;;;;;;;;5032754;28;20030;-63
2023/06/19 14:15:51;;;;;;;3.20;2.90;;;;;;;;;;5064870;28;20021;-63
2023/06/19 14:18:16;;;;;;;3.35;3.05;;;;;;;;;;5030553;28;20025;-63
2023/06/19 14:20:42;;;;;;;4.60;3.22;;;;;;;;;;5031393;28;20381;-62
2023/06/19 14:23:08;;;;;;;3.42;2.97;;;;;;;;;;5032973;28;20037;-62
2023/06/19 14:25:34;;;;;;;4.10;3.33;;;;;;;;;;5032644;28;20021;-63
2023/06/19 14:27:59;;;;;;;3.47;3.17;;;;;;;;;;5032652;28;20033;-62
2023/06/19 14:30:25;;;;;;;3.50;3.20;;;;;;;;;;5032615;28;20028;-63
2023/06/19 14:32:51;;;;;;;4.05;3.20;;;;;;;;;;5032399;28;20049;-64
2023/06/19 14:35:17;;;;;;;6.05;3.20;;;;;;;;;;5032518;28;20092;-63
2023/06/19 14:37:43;;;;;;;3.90;3.15;;;;;;;;;;5032452;28;20022;-62
2023/06/19 14:40:09;;;;;;;4.45;3.40;;;;;;;;;;5032703;28;20538;-62
2023/06/19 14:42:34;;;;;;;4.80;3.17;;;;;;;;;;5032298;28;20022;-62
2023/06/19 14:45:00;;;;;;;3.47;3.03;;;;;;;;;;5032397;28;20026;-63